createdAt,value
2018-03-30T00:02:00.179Z,5.52
2018-03-30T00:04:28.503Z,5.53
2018-03-30T00:06:56.849Z,5.58
2018-03-30T00:09:36.789Z,5.48
2018-03-30T00:12:05.133Z,5.31
2018-03-30T00:14:33.467Z,5.47
2018-03-30T00:17:01.806Z,6.88
2018-03-30T00:19:30.126Z,6.06
2018-03-30T00:21:58.474Z,5.80
2018-03-30T00:24:26.794Z,5.71
2018-03-30T00:26:55.137Z,5.66
2018-03-30T00:29:23.463Z,5.59
2018-03-30T00:31:51.807Z,5.60
2018-03-30T00:34:20.135Z,5.51
2018-03-30T00:36:48.471Z,5.29
2018-03-30T00:39:16.794Z,5.25
2018-03-30T00:41:45.134Z,5.35
2018-03-30T00:44:13.513Z,5.42
2018-03-30T00:46:41.810Z,5.44
2018-03-30T00:49:10.130Z,5.44
2018-03-30T00:51:38.478Z,5.42
2018-03-30T00:54:06.802Z,5.36
2018-03-30T00:56:35.430Z,5.34
2018-03-30T00:59:03.749Z,5.36
2018-03-30T01:01:32.098Z,5.35
2018-03-30T01:04:00.422Z,5.29
2018-03-30T01:06:28.766Z,5.28
2018-03-30T01:08:57.091Z,5.10
2018-03-30T01:11:25.434Z,5.05
2018-03-30T01:13:53.766Z,5.05
2018-03-30T01:16:22.107Z,5.02
2018-03-30T01:18:50.430Z,5.03
2018-03-30T01:21:18.765Z,4.95
2018-03-30T01:23:47.097Z,4.89
2018-03-30T01:26:15.446Z,5.00
2018-03-30T01:28:43.770Z,5.02
2018-03-30T01:31:12.114Z,5.00
2018-03-30T01:33:40.434Z,5.11
2018-03-30T01:36:08.770Z,5.07
2018-03-30T01:38:37.101Z,4.86
2018-03-30T01:41:05.441Z,4.87
2018-03-30T01:43:33.765Z,4.83
2018-03-30T01:46:02.114Z,4.92
2018-03-30T01:48:30.437Z,5.00
2018-03-30T01:50:58.762Z,4.95
2018-03-30T01:53:27.105Z,4.89
2018-03-30T01:55:55.435Z,4.84
2018-03-30T01:58:24.470Z,4.77
2018-03-30T02:00:52.785Z,4.68
2018-03-30T02:03:21.131Z,4.52
2018-03-30T02:05:49.449Z,4.49
2018-03-30T02:08:17.798Z,4.52
2018-03-30T02:10:46.118Z,4.61
2018-03-30T02:13:14.467Z,4.71
2018-03-30T02:15:42.790Z,4.72
2018-03-30T02:18:11.142Z,4.67
2018-03-30T02:20:39.467Z,4.68
2018-03-30T02:23:07.814Z,4.71
2018-03-30T02:25:36.134Z,4.66
2018-03-30T02:28:04.474Z,4.64
2018-03-30T02:30:32.807Z,4.58
2018-03-30T02:33:01.150Z,4.58
2018-03-30T02:35:29.471Z,4.53
2018-03-30T02:37:57.816Z,4.54
2018-03-30T02:40:26.138Z,4.53
2018-03-30T02:42:54.481Z,4.54
2018-03-30T02:45:22.813Z,4.43
2018-03-30T02:47:51.156Z,4.53
2018-03-30T02:50:19.475Z,4.53
2018-03-30T02:52:47.818Z,4.55
2018-03-30T02:55:16.143Z,4.55
2018-03-30T02:57:44.495Z,4.58
2018-03-30T03:00:12.814Z,4.59
2018-03-30T03:02:41.163Z,4.55
2018-03-30T03:05:09.487Z,4.56
2018-03-30T03:07:37.827Z,4.59
2018-03-30T03:10:06.146Z,4.59
2018-03-30T03:12:34.486Z,4.57
2018-03-30T03:15:02.818Z,4.56
2018-03-30T03:17:31.154Z,4.52
2018-03-30T03:19:59.472Z,4.51
2018-03-30T03:22:27.814Z,4.53
2018-03-30T03:24:56.138Z,4.44
2018-03-30T03:27:24.482Z,4.41
2018-03-30T03:29:52.805Z,4.43
2018-03-30T03:32:21.146Z,4.40
2018-03-30T03:34:49.466Z,4.35
2018-03-30T03:37:17.810Z,4.39
2018-03-30T03:39:46.137Z,4.45
2018-03-30T03:42:14.473Z,4.49
2018-03-30T03:44:42.794Z,4.32
2018-03-30T03:47:11.147Z,4.30
2018-03-30T03:49:39.473Z,4.30
2018-03-30T03:52:07.790Z,4.34
2018-03-30T03:54:36.138Z,4.30
2018-03-30T03:57:04.471Z,4.36
2018-03-30T03:59:32.818Z,4.42
2018-03-30T04:02:01.139Z,4.40
2018-03-30T04:04:29.476Z,4.38
2018-03-30T04:06:57.798Z,4.37
2018-03-30T04:09:26.145Z,4.44
2018-03-30T04:11:54.477Z,4.41
2018-03-30T04:14:22.810Z,4.44
2018-03-30T04:16:51.166Z,4.44
2018-03-30T04:19:19.537Z,4.48
2018-03-30T04:21:47.873Z,4.51
2018-03-30T04:24:16.242Z,4.62
2018-03-30T04:26:44.567Z,4.58
2018-03-30T04:29:12.915Z,4.64
2018-03-30T04:31:41.238Z,4.57
2018-03-30T04:34:09.589Z,4.42
2018-03-30T04:36:37.906Z,4.34
2018-03-30T04:39:06.254Z,4.32
2018-03-30T04:41:34.580Z,4.33
2018-03-30T04:44:02.918Z,4.35
2018-03-30T04:46:31.294Z,4.53
2018-03-30T04:48:59.639Z,4.62
2018-03-30T04:51:27.966Z,4.65
2018-03-30T04:53:56.314Z,4.64
2018-03-30T04:56:24.634Z,4.67
2018-03-30T04:58:52.973Z,4.62
2018-03-30T05:01:21.302Z,4.68
2018-03-30T05:03:49.650Z,4.59
2018-03-30T05:06:17.969Z,4.57
2018-03-30T05:08:46.314Z,4.57
2018-03-30T05:11:14.638Z,4.56
2018-03-30T05:13:42.975Z,4.54
2018-03-30T05:16:11.297Z,4.50
2018-03-30T05:18:39.642Z,4.44
2018-03-30T05:21:07.958Z,4.45
2018-03-30T05:23:36.301Z,4.42
2018-03-30T05:26:04.626Z,4.42
2018-03-30T05:28:33.065Z,4.51
2018-03-30T05:31:01.382Z,4.54
2018-03-30T05:33:29.735Z,4.61
2018-03-30T05:35:58.057Z,4.64
2018-03-30T05:38:26.398Z,4.63
2018-03-30T05:40:54.714Z,4.64
2018-03-30T05:43:23.049Z,4.69
2018-03-30T05:45:51.373Z,4.68
2018-03-30T05:48:19.731Z,4.72
2018-03-30T05:50:48.054Z,4.77
2018-03-30T05:53:16.378Z,4.73
2018-03-30T05:55:44.721Z,4.74
2018-03-30T05:58:13.052Z,4.76
2018-03-30T06:00:41.395Z,4.79
2018-03-30T06:03:09.718Z,4.84
2018-03-30T06:05:38.062Z,4.82
2018-03-30T06:08:06.425Z,4.84
2018-03-30T06:10:34.739Z,4.99
2018-03-30T06:13:03.042Z,4.91
2018-03-30T06:15:31.381Z,4.91
2018-03-30T06:17:59.703Z,5.00
2018-03-30T06:20:28.042Z,5.07
2018-03-30T06:22:56.437Z,5.09
2018-03-30T06:25:24.757Z,5.20
2018-03-30T06:27:53.078Z,5.24
2018-03-30T06:30:21.428Z,5.33
2018-03-30T06:32:49.742Z,5.23
2018-03-30T06:35:18.082Z,5.19
2018-03-30T06:37:46.410Z,5.29
2018-03-30T06:40:14.741Z,5.34
2018-03-30T06:42:43.070Z,5.44
2018-03-30T06:45:12.260Z,5.48
2018-03-30T06:47:40.577Z,5.60
2018-03-30T06:50:08.927Z,5.71
2018-03-30T06:52:37.258Z,5.77
2018-03-30T06:55:05.607Z,5.85
2018-03-30T06:57:33.938Z,5.84
2018-03-30T07:00:02.294Z,5.94
2018-03-30T07:02:30.618Z,5.94
2018-03-30T07:04:58.963Z,5.93
2018-03-30T07:07:27.290Z,5.96
2018-03-30T07:09:55.640Z,6.23
2018-03-30T07:12:23.965Z,6.22
2018-03-30T07:14:52.322Z,6.16
2018-03-30T07:17:21.649Z,6.15
2018-03-30T07:19:49.990Z,6.18
2018-03-30T07:22:18.682Z,6.21
2018-03-30T07:24:47.030Z,6.22
2018-03-30T07:27:15.354Z,6.18
2018-03-30T07:29:43.707Z,6.21
2018-03-30T07:32:12.026Z,6.29
2018-03-30T07:34:40.384Z,6.39
2018-03-30T07:37:08.722Z,6.36
2018-03-30T07:39:37.071Z,6.41
2018-03-30T07:42:05.443Z,6.48
2018-03-30T07:44:33.810Z,6.57
2018-03-30T07:47:02.138Z,6.62
2018-03-30T07:49:30.497Z,6.71
2018-03-30T07:51:58.825Z,6.82
2018-03-30T07:54:27.157Z,6.87
2018-03-30T07:56:55.628Z,6.85
2018-03-30T07:59:23.965Z,6.88
2018-03-30T08:01:52.973Z,6.98
2018-03-30T08:04:21.306Z,7.02
2018-03-30T08:06:50.664Z,7.14
2018-03-30T08:09:19.001Z,7.24
2018-03-30T08:11:47.375Z,7.28
2018-03-30T08:14:15.731Z,7.20
2018-03-30T08:16:44.094Z,7.26
2018-03-30T08:19:12.415Z,7.50
2018-03-30T08:21:40.776Z,7.74
2018-03-30T08:24:09.102Z,7.91
2018-03-30T08:26:39.406Z,8.10
2018-03-30T08:29:07.713Z,8.30
2018-03-30T08:31:36.107Z,8.56
2018-03-30T08:34:04.436Z,8.83
2018-03-30T08:36:32.797Z,8.99
2018-03-30T08:39:01.115Z,9.12
2018-03-30T08:41:29.467Z,9.23
2018-03-30T08:43:57.819Z,9.25
2018-03-30T08:46:26.159Z,9.16
2018-03-30T08:48:54.483Z,9.06
2018-03-30T08:51:22.844Z,9.05
2018-03-30T08:53:51.174Z,9.05
2018-03-30T08:56:19.531Z,9.07
2018-03-30T08:58:47.858Z,9.16
2018-03-30T09:01:16.217Z,9.23
2018-03-30T09:03:44.542Z,9.28
2018-03-30T09:06:13.123Z,9.27
2018-03-30T09:08:41.454Z,9.22
2018-03-30T09:11:09.802Z,9.25
2018-03-30T09:13:38.130Z,9.45
2018-03-30T09:16:06.494Z,9.47
2018-03-30T09:18:34.822Z,9.58
2018-03-30T09:21:03.170Z,9.71
2018-03-30T09:23:31.494Z,9.86
2018-03-30T09:25:59.852Z,10.15
2018-03-30T09:28:28.186Z,10.42
2018-03-30T09:30:56.542Z,10.65
2018-03-30T09:33:27.645Z,10.82
2018-03-30T09:35:55.991Z,10.95
2018-03-30T09:38:24.320Z,11.05
2018-03-30T09:40:52.666Z,11.33
2018-03-30T09:43:21.003Z,11.38
2018-03-30T09:45:49.350Z,11.48
2018-03-30T09:48:17.683Z,11.53
2018-03-30T09:50:46.027Z,11.45
2018-03-30T09:53:14.628Z,11.58
2018-03-30T09:55:43.313Z,11.71
2018-03-30T09:58:11.958Z,11.81
2018-03-30T10:00:44.538Z,11.91
2018-03-30T10:03:13.347Z,12.05
2018-03-30T10:05:42.069Z,12.05
2018-03-30T10:08:10.836Z,12.13
2018-03-30T10:10:39.253Z,12.31
2018-03-30T10:13:07.591Z,12.21
2018-03-30T10:15:35.923Z,12.24
2018-03-30T10:18:04.268Z,12.31
2018-03-30T10:20:32.598Z,12.45
2018-03-30T10:23:00.954Z,12.41
2018-03-30T10:25:29.281Z,12.44
2018-03-30T10:27:57.630Z,12.48
2018-03-30T10:30:25.951Z,12.55
2018-03-30T10:32:54.294Z,12.66
2018-03-30T10:35:22.606Z,12.80
2018-03-30T10:37:50.960Z,12.87
2018-03-30T10:40:19.284Z,12.99
2018-03-30T10:42:47.622Z,13.14
2018-03-30T10:45:15.950Z,13.19
2018-03-30T10:47:44.293Z,13.32
2018-03-30T10:50:12.619Z,13.28
2018-03-30T10:52:40.965Z,13.41
2018-03-30T10:55:09.270Z,13.57
2018-03-30T10:57:37.610Z,13.62
2018-03-30T11:00:05.948Z,13.60
2018-03-30T11:02:34.294Z,13.66
2018-03-30T11:05:02.622Z,13.71
2018-03-30T11:07:30.966Z,13.72
2018-03-30T11:09:59.294Z,13.78
2018-03-30T11:12:27.649Z,13.90
2018-03-30T11:14:55.974Z,13.88
2018-03-30T11:17:24.322Z,13.72
2018-03-30T11:19:52.645Z,13.73
2018-03-30T11:22:20.994Z,13.69
2018-03-30T11:24:49.317Z,13.66
2018-03-30T11:27:17.658Z,13.73
2018-03-30T11:29:45.993Z,13.84
2018-03-30T11:32:14.330Z,14.22
2018-03-30T11:34:42.654Z,13.88
2018-03-30T11:37:10.998Z,13.84
2018-03-30T11:39:39.327Z,13.91
2018-03-30T11:42:07.680Z,13.80
2018-03-30T11:44:36.302Z,13.81
2018-03-30T11:47:04.642Z,13.73
2018-03-30T11:49:32.962Z,13.77
2018-03-30T11:52:01.318Z,13.79
2018-03-30T11:54:29.634Z,13.67
2018-03-30T11:56:57.984Z,13.62
2018-03-30T11:59:26.298Z,13.69
2018-03-30T12:01:54.646Z,13.59
2018-03-30T12:04:23.199Z,13.50
2018-03-30T12:06:51.558Z,13.50
2018-03-30T12:09:19.886Z,13.53
2018-03-30T12:11:48.222Z,13.60
2018-03-30T12:14:16.566Z,13.75
2018-03-30T12:16:45.853Z,13.69
2018-03-30T12:19:14.193Z,13.72
2018-03-30T12:21:42.505Z,13.63
2018-03-30T12:24:11.115Z,13.74
2018-03-30T12:26:39.434Z,13.88
2018-03-30T12:29:07.761Z,13.89
2018-03-30T12:31:36.086Z,14.00
2018-03-30T12:34:04.429Z,14.10
2018-03-30T12:36:32.753Z,14.27
2018-03-30T12:39:01.089Z,14.37
2018-03-30T12:41:29.410Z,14.43
2018-03-30T12:43:57.907Z,14.40
2018-03-30T12:46:26.231Z,14.37
2018-03-30T12:48:54.571Z,14.24
2018-03-30T12:51:22.902Z,14.26
2018-03-30T12:53:51.243Z,14.26
2018-03-30T12:56:20.455Z,14.33
2018-03-30T12:58:48.798Z,14.25
2018-03-30T13:01:17.114Z,14.27
2018-03-30T13:03:45.510Z,14.28
2018-03-30T13:06:14.733Z,14.22
2018-03-30T13:08:43.055Z,14.26
2018-03-30T13:11:11.373Z,14.28
2018-03-30T13:13:39.713Z,14.54
2018-03-30T13:16:08.031Z,14.55
2018-03-30T13:18:36.370Z,14.63
2018-03-30T13:21:04.688Z,14.58
2018-03-30T13:23:33.243Z,14.70
2018-03-30T13:26:01.561Z,14.74
2018-03-30T13:28:29.894Z,14.77
2018-03-30T13:30:58.210Z,14.85
2018-03-30T13:33:26.554Z,14.91
2018-03-30T13:35:54.878Z,14.95
2018-03-30T13:38:23.214Z,15.01
2018-03-30T13:40:51.538Z,15.05
2018-03-30T13:43:20.794Z,14.91
2018-03-30T13:45:49.127Z,14.97
2018-03-30T13:48:17.481Z,14.92
2018-03-30T13:50:49.535Z,14.90
2018-03-30T13:56:21.302Z,14.94
2018-03-30T13:59:01.399Z,14.95
2018-03-30T14:01:35.324Z,14.93
2018-03-30T14:04:08.318Z,15.01
2018-03-30T14:09:47.502Z,14.80
2018-03-30T14:15:14.172Z,14.86
2018-03-30T14:20:48.151Z,14.74
2018-03-30T14:23:22.007Z,14.64
2018-03-30T14:25:51.174Z,14.75
2018-03-30T14:28:29.231Z,14.92
2018-03-30T14:31:04.346Z,14.94
2018-03-30T14:33:33.410Z,14.88
2018-03-30T14:36:08.548Z,14.84
2018-03-30T14:38:36.907Z,14.84
2018-03-30T14:41:05.248Z,14.79
2018-03-30T14:43:37.422Z,14.68
2018-03-30T14:46:25.366Z,14.63
2018-03-30T14:48:58.078Z,14.61
2018-03-30T14:54:57.090Z,14.53
2018-03-30T14:57:38.917Z,14.36
2018-03-30T15:03:08.145Z,14.25
2018-03-30T15:05:43.138Z,14.23
2018-03-30T15:08:17.793Z,14.26
2018-03-30T15:10:51.621Z,14.24
2018-03-30T15:13:20.921Z,14.32
2018-03-30T15:15:54.039Z,14.39
2018-03-30T15:21:26.964Z,14.28
2018-03-30T15:23:56.064Z,14.39
2018-03-30T15:26:27.283Z,14.41
2018-03-30T15:28:59.330Z,14.33
2018-03-30T15:31:29.242Z,14.35
2018-03-30T15:33:59.091Z,14.28
2018-03-30T15:36:33.605Z,14.31
2018-03-30T15:39:02.038Z,14.18
2018-03-30T15:41:30.374Z,14.11
2018-03-30T15:43:58.804Z,14.13
2018-03-30T15:46:36.995Z,14.07
2018-03-30T15:49:05.343Z,14.03
2018-03-30T15:51:37.434Z,14.03
2018-03-30T15:54:05.254Z,14.02
2018-03-30T15:56:35.382Z,13.97
2018-03-30T15:59:03.750Z,13.96
2018-03-30T16:01:32.092Z,13.96
2018-03-30T16:04:00.418Z,13.94
2018-03-30T16:06:29.698Z,13.82
2018-03-30T16:08:58.026Z,13.75
2018-03-30T16:11:27.250Z,13.73
2018-03-30T16:13:55.578Z,13.70
2018-03-30T16:16:24.834Z,13.65
2018-03-30T16:18:56.469Z,13.67
2018-03-30T16:21:24.259Z,13.66
2018-03-30T16:23:52.060Z,13.67
2018-03-30T16:26:19.863Z,13.59
2018-03-30T16:28:47.671Z,13.61
2018-03-30T16:31:15.475Z,13.61
2018-03-30T16:33:43.262Z,13.62
2018-03-30T16:36:11.214Z,13.63
2018-03-30T16:38:39.012Z,13.66
2018-03-30T16:41:06.542Z,13.60
2018-03-30T16:43:34.062Z,13.54
2018-03-30T16:46:01.586Z,13.54
2018-03-30T16:48:29.098Z,13.52
2018-03-30T16:50:56.617Z,13.48
2018-03-30T16:53:24.126Z,13.46
2018-03-30T16:55:51.659Z,13.43
2018-03-30T16:58:19.174Z,13.44
2018-03-30T17:00:46.712Z,13.39
2018-03-30T17:03:14.218Z,13.30
2018-03-30T17:05:41.751Z,13.27
2018-03-30T17:08:09.256Z,13.28
2018-03-30T17:10:36.786Z,13.24
2018-03-30T17:13:04.290Z,13.23
2018-03-30T17:15:31.823Z,13.17
2018-03-30T17:17:59.339Z,13.16
2018-03-30T17:20:26.866Z,13.13
2018-03-30T17:22:54.378Z,13.09
2018-03-30T17:25:21.924Z,13.06
2018-03-30T17:27:49.438Z,13.05
2018-03-30T17:30:17.753Z,13.02
2018-03-30T17:32:45.222Z,12.99
2018-03-30T17:35:12.749Z,12.96
2018-03-30T17:37:40.253Z,12.94
2018-03-30T17:40:07.794Z,12.85
2018-03-30T17:42:35.302Z,12.76
2018-03-30T17:45:02.818Z,12.80
2018-03-30T17:47:30.343Z,12.79
2018-03-30T17:49:57.856Z,12.78
2018-03-30T17:52:25.386Z,12.67
2018-03-30T17:54:52.922Z,12.63
2018-03-30T17:57:20.458Z,12.61
2018-03-30T17:59:47.975Z,12.57
2018-03-30T18:02:16.083Z,12.57
2018-03-30T18:04:43.567Z,12.62
2018-03-30T18:07:11.189Z,12.60
2018-03-30T18:09:38.703Z,12.55
2018-03-30T18:12:06.238Z,12.52
2018-03-30T18:14:33.751Z,12.51
2018-03-30T18:17:01.442Z,12.52
2018-03-30T18:19:28.940Z,12.45
2018-03-30T18:21:56.466Z,12.40
2018-03-30T18:24:23.976Z,12.36
2018-03-30T18:26:51.507Z,12.36
2018-03-30T18:29:19.022Z,12.29
2018-03-30T18:31:46.562Z,12.31
2018-03-30T18:34:14.197Z,12.29
2018-03-30T18:36:41.901Z,12.21
2018-03-30T18:39:09.582Z,12.20
2018-03-30T18:41:37.324Z,12.23
2018-03-30T18:44:04.862Z,12.22
2018-03-30T18:46:32.404Z,12.11
2018-03-30T18:48:59.918Z,12.05
2018-03-30T18:51:27.455Z,12.04
2018-03-30T18:53:55.032Z,12.03
2018-03-30T18:56:22.568Z,12.02
2018-03-30T18:58:50.078Z,12.03
2018-03-30T19:01:17.602Z,11.99
2018-03-30T19:03:45.119Z,11.94
2018-03-30T19:06:12.668Z,11.89
2018-03-30T19:08:40.818Z,11.89
2018-03-30T19:11:08.354Z,11.87
2018-03-30T19:13:35.866Z,11.80
2018-03-30T19:16:03.431Z,11.73
2018-03-30T19:18:30.945Z,11.78
2018-03-30T19:20:58.525Z,11.74
2018-03-30T19:23:26.030Z,11.68
2018-03-30T19:25:53.551Z,11.65
2018-03-30T19:28:21.099Z,11.63
2018-03-30T19:30:48.632Z,11.55
2018-03-30T19:33:16.163Z,11.51
2018-03-30T19:35:43.694Z,11.49
2018-03-30T19:38:11.223Z,11.39
2018-03-30T19:40:38.741Z,11.31
2018-03-30T19:43:06.284Z,11.26
2018-03-30T19:45:33.799Z,11.23
2018-03-30T19:48:01.406Z,11.16
2018-03-30T19:50:28.918Z,11.07
2018-03-30T19:52:56.459Z,11.03
2018-03-30T19:55:23.990Z,11.02
2018-03-30T19:57:51.559Z,10.98
2018-03-30T20:00:19.070Z,10.93
2018-03-30T20:02:46.649Z,10.90
2018-03-30T20:05:14.185Z,10.88
2018-03-30T20:07:41.761Z,10.86
2018-03-30T20:10:10.262Z,10.85
2018-03-30T20:12:37.807Z,10.81
2018-03-30T20:15:05.340Z,10.79
2018-03-30T20:17:32.863Z,10.79
2018-03-30T20:20:00.386Z,10.75
2018-03-30T20:22:27.915Z,10.64
2018-03-30T20:24:55.425Z,10.60
2018-03-30T20:27:22.962Z,10.60
2018-03-30T20:29:50.521Z,10.58
2018-03-30T20:32:18.065Z,10.57
2018-03-30T20:34:45.584Z,10.52
2018-03-30T20:37:14.097Z,10.44
2018-03-30T20:39:41.612Z,10.39
2018-03-30T20:42:09.151Z,10.42
2018-03-30T20:44:36.667Z,10.42
2018-03-30T20:47:04.203Z,10.39
2018-03-30T20:49:31.719Z,10.38
2018-03-30T20:51:59.261Z,10.34
2018-03-30T20:54:26.770Z,10.35
2018-03-30T20:56:54.309Z,10.32
2018-03-30T20:59:22.574Z,10.30
2018-03-30T21:01:50.894Z,10.24
2018-03-30T21:04:18.420Z,10.23
2018-03-30T21:06:46.956Z,10.19
2018-03-30T21:09:15.516Z,10.14
2018-03-30T21:11:43.031Z,10.16
2018-03-30T21:14:10.592Z,10.20
2018-03-30T21:16:38.077Z,10.12
2018-03-30T21:19:05.615Z,10.10
2018-03-30T21:21:33.139Z,10.13
2018-03-30T21:24:00.686Z,10.14
2018-03-30T21:26:28.199Z,10.18
2018-03-30T21:28:55.763Z,10.22
2018-03-30T21:31:23.283Z,10.21
2018-03-30T21:33:51.706Z,10.20
2018-03-30T21:36:20.285Z,10.14
2018-03-30T21:38:48.779Z,10.12
2018-03-30T21:41:16.311Z,10.09
2018-03-30T21:43:43.834Z,10.10
2018-03-30T21:46:11.515Z,10.12
2018-03-30T21:48:39.059Z,10.12
2018-03-30T21:51:06.551Z,10.09
2018-03-30T21:53:34.087Z,10.08
2018-03-30T21:56:01.603Z,10.04
2018-03-30T21:58:29.153Z,10.03
2018-03-30T22:00:56.663Z,10.02
2018-03-30T22:03:24.193Z,10.00
2018-03-30T22:05:52.078Z,10.06
2018-03-30T22:08:19.606Z,10.04
2018-03-30T22:10:47.123Z,10.04
2018-03-30T22:13:14.662Z,9.98
2018-03-30T22:15:42.161Z,9.97
2018-03-30T22:18:09.707Z,9.97
2018-03-30T22:20:37.210Z,9.94
2018-03-30T22:23:04.740Z,9.95
2018-03-30T22:25:32.285Z,9.94
2018-03-30T22:27:59.821Z,9.92
2018-03-30T22:30:29.136Z,9.94
2018-03-30T22:32:57.275Z,9.91
2018-03-30T22:35:24.964Z,9.88
2018-03-30T22:37:52.795Z,9.89
2018-03-30T22:40:20.329Z,9.89
2018-03-30T22:42:47.841Z,9.88
2018-03-30T22:45:15.490Z,9.87
2018-03-30T22:47:43.002Z,9.81
2018-03-30T22:50:10.530Z,9.85
2018-03-30T22:52:38.039Z,9.82
2018-03-30T22:55:05.561Z,9.81
2018-03-30T22:57:33.099Z,9.89
2018-03-30T23:00:00.705Z,9.86
2018-03-30T23:02:28.202Z,9.78
2018-03-30T23:04:55.733Z,9.76
2018-03-30T23:07:23.524Z,9.84
2018-03-30T23:09:51.331Z,9.85
2018-03-30T23:12:19.118Z,9.84
2018-03-30T23:14:46.935Z,9.83
2018-03-30T23:17:14.718Z,9.81
2018-03-30T23:19:42.578Z,9.83
2018-03-30T23:22:10.319Z,9.77
2018-03-30T23:24:38.130Z,9.71
2018-03-30T23:27:05.913Z,9.73
2018-03-30T23:29:33.734Z,9.79
2018-03-30T23:32:01.524Z,9.81
2018-03-30T23:34:29.339Z,9.74
2018-03-30T23:36:57.130Z,9.68
2018-03-30T23:39:24.967Z,9.71
2018-03-30T23:41:52.750Z,9.74
2018-03-30T23:44:20.560Z,9.79
2018-03-30T23:46:48.338Z,9.77
2018-03-30T23:49:16.146Z,9.77
2018-03-30T23:51:43.933Z,9.71
2018-03-30T23:54:11.746Z,9.80
2018-03-30T23:56:39.544Z,9.82
2018-03-30T23:59:07.365Z,9.81
